Oluja — V7QE8 — position and weather

sailwx.info

Track history (hours):
 
Tides and Currents Weather Stations Pressure Air Temp Water Temp Dewpoint Dewpoint Depression Visibility Wind Speed Wind Dir Waves Ship Positions

Oluja

Last reported at 2016-Aug-19 23:30 UTC. Time now 2016-Sep-26 03:45 UTC.
Position N 31°23' E 032°19'.
Warning: this ship's position is 37 days out of date.

Length 188 m; draft 10.9 m.

Type: Cargo ship. MMSI: 538003345.

Date/timePositionNaut miles runAvg speedWind from/ knotsBaromVisibWave heightAir tempDewpointWater temp
2016-Aug-19 23:30N 31°23' E 032°19'2 0.3
2016-Aug-19 16:33N 31°24' E 032°18'10 8.6
2016-Aug-19 15:22N 31°32' E 032°11'13111.7
2016-Aug-19 04:09N 33°08' E 030°26'5611.7
2016-Aug-18 23:21N 33°50' E 029°41'2111.8
2016-Aug-18 21:33N 34°06' E 029°24'1311.8
2016-Aug-18 20:26N 34°16' E 029°13'3311.5
2016-Aug-18 17:31N 34°41' E 028°47'1111.5
2016-Aug-18 16:33N 34°49' E 028°37'18711.0
2016-Aug-17 23:33N 37°10' E 026°05'1310.5
2016-Aug-17 22:18N 37°22' E 025°57'810.5
2016-Aug-17 21:32N 37°29' E 025°53'2010.3
2016-Aug-17 19:33N 37°48' E 025°43'11711.3
2016-Aug-17 09:11N 39°45' E 025°48'  
Track history (hours):
 
Tides and Currents Weather Stations Pressure Air Temp Water Temp Dewpoint Dewpoint Depression Visibility Wind Speed Wind Dir Waves Ship Positions

Oluja

Last reported at 2016-Aug-19 23:30 UTC. Time now 2016-Sep-26 03:45 UTC.
Position N 31°23' E 032°19'.
Warning: this ship's position is 37 days out of date.

Length 188 m; draft 10.9 m.

Type: Cargo ship. MMSI: 538003345.

Date/timePositionNaut miles runAvg speedWind from/ knotsBaromVisibWave heightAir tempDewpointWater temp
2016-Aug-19 23:30N 31°23' E 032°19'2 0.3
2016-Aug-19 16:33N 31°24' E 032°18'10 8.6
2016-Aug-19 15:22N 31°32' E 032°11'13111.7
2016-Aug-19 04:09N 33°08' E 030°26'5611.7
2016-Aug-18 23:21N 33°50' E 029°41'2111.8
2016-Aug-18 21:33N 34°06' E 029°24'1311.8
2016-Aug-18 20:26N 34°16' E 029°13'3311.5
2016-Aug-18 17:31N 34°41' E 028°47'1111.5
2016-Aug-18 16:33N 34°49' E 028°37'18711.0
2016-Aug-17 23:33N 37°10' E 026°05'1310.5
2016-Aug-17 22:18N 37°22' E 025°57'810.5
2016-Aug-17 21:32N 37°29' E 025°53'2010.3
2016-Aug-17 19:33N 37°48' E 025°43'11711.3
2016-Aug-17 09:11N 39°45' E 025°48'  

Dump ship's entire track history